Terminal Aerodrome Forecast
Issued by NWS Sioux Falls, SD

Home | Current Version | Previous Version | Text Only | Print | Product List | Glossary Off
Versions: 1 2 3 4 5 6 7 8 9 10 11 12

000
FTUS43 KFSD 250520
TAFFSD
TAF
KFSD 250520Z 2506/2606 VRB03KT P6SM SCT250
     FM251500 32013KT P6SM SCT120
     FM260030 VRB03KT P6SM SCT120=

USA.gov is the U.S. government's official web portal to all federal, state and local government web resources and services.